createdAt,value
2019-01-15T00:02:17.340Z,93.08
2019-01-15T00:04:47.583Z,93.21
2019-01-15T00:07:17.909Z,93.52
2019-01-15T00:09:48.210Z,93.20
2019-01-15T00:12:18.524Z,94.05
2019-01-15T00:14:48.857Z,94.04
2019-01-15T00:17:19.271Z,93.45
2019-01-15T00:19:52.837Z,93.49
2019-01-15T00:22:23.314Z,93.49
2019-01-15T00:24:53.708Z,93.68
2019-01-15T00:27:24.168Z,92.78
2019-01-15T00:29:54.565Z,92.09
2019-01-15T00:32:24.941Z,90.73
2019-01-15T00:34:55.266Z,89.41
2019-01-15T00:37:26.600Z,88.67
2019-01-15T00:39:56.991Z,88.38
2019-01-15T00:42:27.326Z,88.95
2019-01-15T00:44:57.649Z,88.26
2019-01-15T00:47:28.076Z,87.69
2019-01-15T00:49:58.364Z,88.68
2019-01-15T00:52:30.818Z,88.99
2019-01-15T00:55:01.115Z,88.88
2019-01-15T00:57:31.505Z,87.95
2019-01-15T01:00:01.959Z,88.37
2019-01-15T01:02:32.583Z,88.62
2019-01-15T01:05:10.739Z,87.63
2019-01-15T01:07:41.160Z,87.82
2019-01-15T01:10:12.971Z,87.50
2019-01-15T01:12:44.503Z,88.62
2019-01-15T01:15:17.058Z,89.04
2019-01-15T01:17:47.391Z,88.32
2019-01-15T01:20:22.811Z,88.62
2019-01-15T01:22:53.651Z,89.50
2019-01-15T01:25:23.958Z,89.20
2019-01-15T01:27:54.226Z,89.39
2019-01-15T01:30:25.164Z,89.44
2019-01-15T01:32:55.544Z,89.34
2019-01-15T01:35:25.997Z,88.96
2019-01-15T01:37:56.436Z,88.92
2019-01-15T01:40:26.943Z,87.80
2019-01-15T01:42:57.238Z,87.61
2019-01-15T01:45:27.827Z,87.07
2019-01-15T01:47:58.197Z,86.17
2019-01-15T01:50:28.792Z,86.93
2019-01-15T01:53:00.258Z,85.93
2019-01-15T01:55:30.724Z,86.01
2019-01-15T01:58:00.961Z,86.52
2019-01-15T02:00:31.451Z,85.36
2019-01-15T02:03:01.818Z,85.70
2019-01-15T02:05:32.346Z,86.26
2019-01-15T02:08:03.894Z,87.00
2019-01-15T02:10:34.269Z,86.25
2019-01-15T02:13:04.990Z,86.09
2019-01-15T02:15:35.455Z,87.27
2019-01-15T02:18:06.188Z,87.73
2019-01-15T02:20:42.569Z,87.31
2019-01-15T02:23:13.156Z,87.78
2019-01-15T02:25:43.435Z,88.22
2019-01-15T02:28:14.091Z,87.72
2019-01-15T02:30:44.631Z,88.08
2019-01-15T02:33:15.061Z,88.30
2019-01-15T02:35:45.456Z,88.35
2019-01-15T02:38:15.737Z,89.08
2019-01-15T02:40:48.267Z,88.54
2019-01-15T02:43:18.725Z,88.09
2019-01-15T02:45:50.147Z,88.28
2019-01-15T02:48:20.718Z,88.61
2019-01-15T02:50:52.198Z,88.94
2019-01-15T02:53:22.580Z,88.63
2019-01-15T02:55:52.776Z,89.93
2019-01-15T02:58:23.446Z,88.97
2019-01-15T03:01:00.974Z,89.31
2019-01-15T03:03:31.182Z,89.41
2019-01-15T03:06:01.505Z,89.13
2019-01-15T03:08:31.927Z,89.74
2019-01-15T03:11:03.358Z,89.58
2019-01-15T03:13:39.015Z,89.53
2019-01-15T03:16:16.227Z,89.36
2019-01-15T03:18:55.455Z,89.64
2019-01-15T03:21:28.851Z,89.37
2019-01-15T03:24:03.458Z,89.69
2019-01-15T03:27:07.006Z,89.47
2019-01-15T03:30:07.655Z,88.87
2019-01-15T03:32:40.161Z,88.22
2019-01-15T03:35:10.761Z,88.25
2019-01-15T03:37:41.293Z,87.97
2019-01-15T03:40:17.020Z,86.82
2019-01-15T03:42:47.421Z,85.87
2019-01-15T03:45:18.074Z,86.02
2019-01-15T03:47:48.587Z,85.63
2019-01-15T03:50:19.090Z,86.01
2019-01-15T03:52:49.608Z,86.26
2019-01-15T03:55:27.213Z,86.11
2019-01-15T03:57:58.708Z,86.39
2019-01-15T04:00:29.173Z,85.62
2019-01-15T04:02:59.543Z,86.06
2019-01-15T04:05:29.871Z,86.08
2019-01-15T04:08:01.100Z,86.59
2019-01-15T04:10:31.491Z,86.45
2019-01-15T04:13:01.745Z,85.83
2019-01-15T04:15:32.156Z,85.53
2019-01-15T04:18:03.633Z,85.68
2019-01-15T04:20:33.951Z,85.68
2019-01-15T04:23:04.367Z,84.57
2019-01-15T04:25:34.694Z,84.78
2019-01-15T04:28:05.121Z,85.78
2019-01-15T04:30:36.320Z,85.84
2019-01-15T04:33:06.796Z,85.91
2019-01-15T04:35:37.026Z,86.58
2019-01-15T04:38:07.462Z,87.39
2019-01-15T04:40:37.764Z,87.88
2019-01-15T04:43:08.303Z,88.50
2019-01-15T04:45:38.728Z,89.07
2019-01-15T04:48:09.205Z,89.43
2019-01-15T04:50:39.560Z,89.10
2019-01-15T04:53:09.958Z,89.26
2019-01-15T04:55:40.338Z,89.29
2019-01-15T04:58:10.810Z,89.90
2019-01-15T05:00:42.198Z,90.18
2019-01-15T05:03:12.677Z,89.91
2019-01-15T05:05:43.000Z,90.07
2019-01-15T05:08:13.500Z,90.09
2019-01-15T05:10:43.850Z,90.39
2019-01-15T05:13:14.403Z,90.19
2019-01-15T05:15:44.779Z,90.04
2019-01-15T05:18:15.036Z,90.09
2019-01-15T05:20:45.337Z,89.62
2019-01-15T05:23:15.696Z,89.23
2019-01-15T05:25:46.105Z,89.29
2019-01-15T05:28:16.837Z,89.30
2019-01-15T05:30:47.345Z,88.43
2019-01-15T05:33:17.580Z,88.81
2019-01-15T05:35:48.121Z,89.50
2019-01-15T05:38:18.544Z,89.82
2019-01-15T05:40:49.062Z,89.90
2019-01-15T05:43:19.321Z,90.27
2019-01-15T05:45:51.350Z,89.96
2019-01-15T05:48:28.746Z,89.80
2019-01-15T05:51:12.447Z,90.51
2019-01-15T05:53:42.886Z,89.70
2019-01-15T05:56:14.192Z,90.14
2019-01-15T05:58:44.594Z,90.51
2019-01-15T06:01:14.997Z,90.35
2019-01-15T06:03:45.240Z,90.49
2019-01-15T06:06:15.590Z,90.32
2019-01-15T06:08:46.086Z,90.76
2019-01-15T06:11:16.515Z,90.85
2019-01-15T06:13:46.843Z,90.52
2019-01-15T06:16:17.213Z,90.09
2019-01-15T06:18:47.564Z,90.61
2019-01-15T06:21:17.911Z,90.50
2019-01-15T06:23:48.242Z,90.60
2019-01-15T06:26:18.559Z,90.91
2019-01-15T06:28:49.006Z,89.82
2019-01-15T06:31:19.726Z,90.02
2019-01-15T06:33:50.038Z,90.43
2019-01-15T06:36:20.308Z,90.63
2019-01-15T06:38:51.796Z,90.40
2019-01-15T06:41:22.094Z,90.29
2019-01-15T06:43:52.519Z,90.15
2019-01-15T06:46:22.892Z,90.47
2019-01-15T06:48:53.321Z,90.36
2019-01-15T06:51:23.811Z,90.26
2019-01-15T06:53:54.257Z,90.70
2019-01-15T06:56:24.444Z,90.80
2019-01-15T06:58:55.914Z,91.01
2019-01-15T07:01:27.356Z,90.99
2019-01-15T07:03:57.948Z,90.77
2019-01-15T07:06:28.343Z,91.12
2019-01-15T07:08:58.806Z,91.54
2019-01-15T07:11:29.210Z,92.10
2019-01-15T07:13:59.752Z,91.48
2019-01-15T07:16:30.704Z,91.72
2019-01-15T07:19:01.722Z,91.85
2019-01-15T07:21:32.458Z,91.21
2019-01-15T07:24:03.064Z,90.82
2019-01-15T07:26:33.391Z,90.46
2019-01-15T07:29:04.241Z,90.43
2019-01-15T07:34:12.574Z,90.60
2019-01-15T07:36:42.948Z,90.27
2019-01-15T07:39:13.369Z,90.20
2019-01-15T07:41:43.785Z,90.30
2019-01-15T07:44:14.122Z,90.15
2019-01-15T07:46:44.564Z,90.11
2019-01-15T07:49:14.911Z,89.89
2019-01-15T07:51:45.386Z,89.15
2019-01-15T07:54:15.855Z,88.56
2019-01-15T07:56:47.260Z,88.46
2019-01-15T07:59:17.659Z,88.48
2019-01-15T08:01:48.387Z,88.29
2019-01-15T08:04:18.769Z,88.32
2019-01-15T08:06:49.642Z,88.81
2019-01-15T08:09:21.354Z,88.56
2019-01-15T08:11:51.793Z,87.94
2019-01-15T08:14:22.187Z,87.83
2019-01-15T08:16:52.915Z,88.39
2019-01-15T08:19:23.350Z,88.99
2019-01-15T08:21:54.925Z,89.29
2019-01-15T08:24:25.428Z,88.74
2019-01-15T08:26:55.755Z,88.75
2019-01-15T08:29:26.051Z,88.36
2019-01-15T08:31:56.399Z,88.09
2019-01-15T08:34:26.829Z,87.91
2019-01-15T08:36:57.292Z,87.64
2019-01-15T08:39:27.742Z,88.11
2019-01-15T08:41:58.163Z,87.87
2019-01-15T08:44:29.073Z,88.19
2019-01-15T08:46:59.414Z,88.17
2019-01-15T08:49:29.957Z,87.04
2019-01-15T08:52:00.368Z,86.84
2019-01-15T08:54:30.715Z,86.58
2019-01-15T08:57:01.157Z,86.22
2019-01-15T08:59:31.516Z,86.20
2019-01-15T09:02:01.857Z,85.55
2019-01-15T09:04:32.288Z,84.82
2019-01-15T09:07:02.640Z,84.97
2019-01-15T09:09:33.016Z,90.60
2019-01-15T09:12:03.652Z,82.66
2019-01-15T09:14:34.097Z,80.71
2019-01-15T09:17:10.788Z,82.04
2019-01-15T09:19:36.789Z,82.26
2019-01-15T09:22:07.340Z,81.43
2019-01-15T09:24:37.733Z,80.60
2019-01-15T09:27:08.494Z,80.32
2019-01-15T09:29:38.857Z,80.25
2019-01-15T09:32:09.441Z,79.83
2019-01-15T09:34:39.760Z,79.91
2019-01-15T09:37:11.841Z,79.51
2019-01-15T09:39:42.215Z,77.23
2019-01-15T09:42:12.905Z,78.46
2019-01-15T09:44:43.583Z,77.77
2019-01-15T09:47:13.985Z,77.60
2019-01-15T09:49:44.199Z,77.68
2019-01-15T09:52:20.484Z,77.96
2019-01-15T09:54:46.553Z,77.28
2019-01-15T09:57:17.060Z,78.34
2019-01-15T09:59:47.479Z,77.55
2019-01-15T10:02:17.927Z,77.34
2019-01-15T10:04:48.265Z,76.69
2019-01-15T10:07:18.713Z,76.60
2019-01-15T10:09:49.104Z,75.56
2019-01-15T10:12:19.424Z,75.83
2019-01-15T10:14:49.666Z,76.54
2019-01-15T10:17:20.080Z,76.41
2019-01-15T10:19:50.555Z,77.14
2019-01-15T10:22:21.008Z,77.55
2019-01-15T10:24:51.797Z,77.92
2019-01-15T10:27:22.496Z,78.45
2019-01-15T10:29:59.145Z,77.69
2019-01-15T10:33:11.452Z,77.39
2019-01-15T10:36:00.449Z,77.99
2019-01-15T10:38:33.293Z,77.33
2019-01-15T10:41:03.895Z,77.09
2019-01-15T10:43:38.164Z,76.64
2019-01-15T10:46:08.580Z,75.83
2019-01-15T10:48:39.011Z,79.40
2019-01-15T10:51:09.350Z,74.41
2019-01-15T10:53:40.774Z,74.29
2019-01-15T10:56:11.017Z,72.98
2019-01-15T10:58:41.452Z,74.25
2019-01-15T11:01:12.931Z,74.19
2019-01-15T11:03:43.208Z,75.25
2019-01-15T11:06:13.652Z,75.32
2019-01-15T11:08:44.010Z,74.60
2019-01-15T11:11:14.576Z,74.26
2019-01-15T11:13:44.937Z,74.51
2019-01-15T11:16:15.419Z,74.78
2019-01-15T11:18:45.899Z,74.26
2019-01-15T11:21:16.429Z,73.84
2019-01-15T11:23:46.876Z,73.88
2019-01-15T11:26:17.310Z,74.09
2019-01-15T11:28:47.659Z,73.72
2019-01-15T11:31:17.963Z,73.63
2019-01-15T11:33:48.238Z,74.58
2019-01-15T11:36:18.689Z,74.25
2019-01-15T11:38:49.138Z,73.83
2019-01-15T11:41:19.512Z,73.89
2019-01-15T11:43:49.880Z,72.90
2019-01-15T11:46:20.242Z,72.43
2019-01-15T11:48:50.616Z,72.66
2019-01-15T11:51:21.184Z,72.51
2019-01-15T11:53:51.574Z,72.49
2019-01-15T11:56:22.239Z,73.41
2019-01-15T11:58:53.226Z,72.99
2019-01-15T12:01:34.283Z,73.71
2019-01-15T12:04:15.647Z,73.79
2019-01-15T12:07:07.611Z,73.51
2019-01-15T12:09:55.918Z,73.81
2019-01-15T12:12:44.865Z,73.78
2019-01-15T12:15:29.132Z,73.86
2019-01-15T12:18:09.371Z,73.36
2019-01-15T12:21:02.702Z,73.21
2019-01-15T12:23:52.019Z,73.63
2019-01-15T12:26:40.371Z,74.16
2019-01-15T12:29:40.573Z,74.19
2019-01-15T12:32:30.351Z,74.39
2019-01-15T12:35:18.787Z,73.65
2019-01-15T12:38:06.758Z,73.94
2019-01-15T12:40:52.570Z,74.82
2019-01-15T12:43:47.159Z,75.40
2019-01-15T12:46:32.899Z,75.83
2019-01-15T12:49:21.304Z,75.84
2019-01-15T12:52:17.712Z,76.43
2019-01-15T12:55:25.396Z,76.10
2019-01-15T12:58:08.643Z,76.51
2019-01-15T13:00:57.966Z,76.88
2019-01-15T13:04:05.610Z,76.82
2019-01-15T13:07:00.691Z,76.35
2019-01-15T13:10:01.921Z,76.28
2019-01-15T13:12:43.227Z,75.91
2019-01-15T13:15:34.480Z,75.98
2019-01-15T13:18:19.207Z,76.51
2019-01-15T13:21:17.426Z,76.53
2019-01-15T13:24:01.266Z,76.26
2019-01-15T13:26:42.026Z,75.96
2019-01-15T13:29:37.093Z,76.96
2019-01-15T13:32:32.605Z,76.82
2019-01-15T13:35:39.999Z,76.25
2019-01-15T13:38:32.193Z,76.98
2019-01-15T13:41:13.262Z,77.27
2019-01-15T13:44:16.624Z,77.59
2019-01-15T13:47:04.318Z,77.23
2019-01-15T13:49:53.563Z,77.56
2019-01-15T13:52:41.290Z,77.22
2019-01-15T13:55:30.035Z,78.28
2019-01-15T13:58:18.039Z,78.34
2019-01-15T14:00:59.041Z,78.66
2019-01-15T14:03:45.469Z,78.37
2019-01-15T14:06:33.755Z,78.64
2019-01-15T14:09:20.287Z,78.91
2019-01-15T14:12:19.036Z,79.31
2019-01-15T14:15:11.343Z,78.83
2019-01-15T14:17:56.063Z,78.91
2019-01-15T14:20:46.477Z,79.17
2019-01-15T14:23:40.644Z,79.04
2019-01-15T14:26:23.788Z,78.34
2019-01-15T14:29:18.923Z,78.70
2019-01-15T14:32:01.098Z,78.43
2019-01-15T14:34:52.043Z,78.90
2019-01-15T14:37:40.759Z,79.26
2019-01-15T14:40:24.993Z,79.19
2019-01-15T14:43:13.069Z,79.43
2019-01-15T14:46:01.237Z,79.34
2019-01-15T14:48:56.760Z,78.56
2019-01-15T14:51:42.489Z,78.50
2019-01-15T14:54:30.691Z,78.67
2019-01-15T14:57:09.009Z,79.17
2019-01-15T14:59:53.120Z,79.32
2019-01-15T15:02:45.317Z,78.56
2019-01-15T15:05:26.199Z,79.34
2019-01-15T15:08:13.951Z,79.58
2019-01-15T15:11:11.981Z,79.23
2019-01-15T15:14:10.533Z,79.21
2019-01-15T15:17:05.212Z,79.29
2019-01-15T15:20:06.728Z,79.67
2019-01-15T15:22:59.046Z,79.07
2019-01-15T15:25:46.991Z,79.38
2019-01-15T15:28:42.392Z,79.72
2019-01-15T15:31:34.554Z,79.93
2019-01-15T15:34:22.455Z,78.79
2019-01-15T15:37:10.506Z,78.83
2019-01-15T15:39:51.008Z,78.79
2019-01-15T15:42:38.979Z,78.68
2019-01-15T15:45:21.585Z,78.25
2019-01-15T15:48:09.684Z,78.75
2019-01-15T15:50:50.953Z,77.40
2019-01-15T15:53:58.673Z,78.18
2019-01-15T15:56:59.916Z,78.17
2019-01-15T15:59:48.036Z,78.31
2019-01-15T16:02:41.095Z,78.26
2019-01-15T16:05:39.080Z,77.17
2019-01-15T16:08:32.472Z,77.69
2019-01-15T16:11:26.861Z,77.59
2019-01-15T16:14:05.889Z,77.75
2019-01-15T16:17:04.527Z,77.68
2019-01-15T16:19:48.971Z,78.08
2019-01-15T16:22:39.809Z,78.30
2019-01-15T16:25:39.532Z,78.19
2019-01-15T16:28:41.988Z,78.07
2019-01-15T16:31:40.214Z,77.49
2019-01-15T16:34:25.442Z,77.90
2019-01-15T16:37:13.633Z,77.39
2019-01-15T16:40:03.265Z,77.55
2019-01-15T16:42:51.422Z,77.26
2019-01-15T16:45:39.718Z,77.63
2019-01-15T16:48:42.240Z,77.61
2019-01-15T16:51:49.787Z,79.78
2019-01-15T16:54:41.936Z,77.72
2019-01-15T16:57:34.395Z,78.14
2019-01-15T17:00:29.653Z,78.58
2019-01-15T17:03:09.746Z,79.20
2019-01-15T17:05:50.473Z,78.30
2019-01-15T17:08:46.016Z,78.37
2019-01-15T17:11:38.171Z,78.72
2019-01-15T17:14:33.359Z,78.97
2019-01-15T17:17:25.736Z,78.75
2019-01-15T17:20:10.556Z,79.27
2019-01-15T17:22:57.963Z,80.08
2019-01-15T17:25:43.023Z,80.28
2019-01-15T17:28:41.526Z,80.35
2019-01-15T17:31:33.399Z,80.26
2019-01-15T17:34:21.308Z,80.83
2019-01-15T17:37:10.910Z,80.87
2019-01-15T17:40:12.587Z,80.79
2019-01-15T17:43:13.182Z,80.43
2019-01-15T17:45:56.485Z,80.51
2019-01-15T17:48:44.469Z,80.37
2019-01-15T17:51:33.599Z,80.96
2019-01-15T17:54:22.958Z,81.11
2019-01-15T17:57:02.715Z,81.56
2019-01-15T18:00:00.668Z,81.28
2019-01-15T18:02:52.740Z,81.96
2019-01-15T18:05:42.197Z,81.83
2019-01-15T18:08:30.264Z,81.96
2019-01-15T18:11:18.204Z,82.14
2019-01-15T18:14:10.290Z,82.24
2019-01-15T18:16:59.629Z,81.52
2019-01-15T18:19:51.965Z,81.72
2019-01-15T18:22:40.594Z,82.17
2019-01-15T18:25:36.157Z,81.80
2019-01-15T18:28:24.564Z,82.33
2019-01-15T18:31:18.532Z,82.03
2019-01-15T18:34:10.864Z,82.13
2019-01-15T18:37:03.050Z,82.29
2019-01-15T18:39:52.304Z,82.35
2019-01-15T18:42:50.533Z,82.80
2019-01-15T18:45:30.123Z,82.37
2019-01-15T18:48:19.261Z,82.04
2019-01-15T18:51:11.439Z,82.24
2019-01-15T18:54:13.033Z,82.30
2019-01-15T18:57:11.747Z,82.02
2019-01-15T19:00:10.157Z,82.71
2019-01-15T19:02:59.523Z,82.81
2019-01-15T19:06:07.014Z,82.08
2019-01-15T19:09:00.259Z,82.09
2019-01-15T19:12:04.657Z,82.07
2019-01-15T19:14:52.760Z,82.38
2019-01-15T19:17:51.054Z,82.70
2019-01-15T19:20:43.311Z,82.59
2019-01-15T19:23:45.834Z,81.82
2019-01-15T19:26:35.308Z,81.73
2019-01-15T19:29:25.933Z,81.83
2019-01-15T19:32:14.239Z,82.44
2019-01-15T19:35:02.298Z,82.35
2019-01-15T19:37:54.639Z,82.64
2019-01-15T19:40:42.776Z,82.12
2019-01-15T19:43:31.898Z,82.42
2019-01-15T19:46:13.862Z,82.05
2019-01-15T19:49:06.135Z,82.45
2019-01-15T19:51:50.547Z,81.54
2019-01-15T19:54:36.959Z,81.70
2019-01-15T19:57:22.731Z,81.06
2019-01-15T20:00:02.244Z,80.59
2019-01-15T20:02:50.414Z,80.32
2019-01-15T20:05:47.882Z,80.69
2019-01-15T20:08:54.429Z,80.60
2019-01-15T20:11:42.603Z,80.80
2019-01-15T20:14:41.278Z,80.68
2019-01-15T20:17:30.633Z,80.47
2019-01-15T20:20:29.110Z,79.14
2019-01-15T20:23:18.273Z,79.46
2019-01-15T20:26:07.557Z,79.20
2019-01-15T20:28:48.780Z,78.85
2019-01-15T20:31:56.549Z,78.44
2019-01-15T20:34:48.350Z,78.60
2019-01-15T20:37:36.442Z,78.49
2019-01-15T20:40:26.599Z,78.38
2019-01-15T20:43:21.970Z,78.39
2019-01-15T20:46:06.140Z,78.64
2019-01-15T20:48:54.332Z,78.82
2019-01-15T20:51:46.508Z,79.26
2019-01-15T20:54:44.964Z,78.74
2019-01-15T20:57:40.956Z,79.01
2019-01-15T21:00:31.262Z,79.03
2019-01-15T21:03:29.753Z,78.90
2019-01-15T21:06:17.741Z,78.89
2019-01-15T21:09:05.969Z,79.26
2019-01-15T21:12:08.407Z,78.37
2019-01-15T21:14:56.382Z,78.63
2019-01-15T21:17:36.425Z,78.43
2019-01-15T21:20:36.136Z,78.17
2019-01-15T21:23:20.753Z,78.26
2019-01-15T21:26:11.087Z,77.98
2019-01-15T21:28:57.086Z,78.08
2019-01-15T21:31:50.317Z,77.75
2019-01-15T21:34:48.624Z,78.07
2019-01-15T21:37:43.916Z,77.83
2019-01-15T21:40:30.947Z,77.83
2019-01-15T21:43:11.073Z,76.66
2019-01-15T21:45:59.137Z,77.76
2019-01-15T21:48:47.303Z,77.90
2019-01-15T21:51:49.907Z,77.76
2019-01-15T21:54:30.637Z,78.31
2019-01-15T21:57:25.613Z,78.55
2019-01-15T22:00:27.309Z,78.21
2019-01-15T22:03:08.328Z,78.02
2019-01-15T22:05:49.946Z,77.65
2019-01-15T22:08:34.587Z,78.34
2019-01-15T22:11:12.878Z,78.43
2019-01-15T22:14:05.299Z,77.99
2019-01-15T22:16:53.585Z,77.49
2019-01-15T22:19:41.806Z,76.96
2019-01-15T22:22:30.211Z,77.36
2019-01-15T22:25:18.320Z,77.46
2019-01-15T22:28:17.553Z,77.36
2019-01-15T22:31:13.201Z,76.81
2019-01-15T22:34:02.511Z,76.44
2019-01-15T22:37:10.031Z,76.11
2019-01-15T22:40:14.334Z,75.67
2019-01-15T22:43:06.524Z,75.54
2019-01-15T22:45:56.534Z,75.99
2019-01-15T22:48:46.621Z,75.55
2019-01-15T22:51:35.785Z,76.34
2019-01-15T22:54:21.394Z,75.79
2019-01-15T22:57:13.604Z,75.37
2019-01-15T23:00:04.207Z,75.28
2019-01-15T23:02:47.456Z,76.15
2019-01-15T23:05:32.781Z,76.16
2019-01-15T23:08:26.003Z,76.75
2019-01-15T23:11:38.931Z,76.38
2019-01-15T23:14:30.867Z,76.72
2019-01-15T23:17:35.477Z,76.98
2019-01-15T23:20:25.998Z,77.22
2019-01-15T23:23:08.130Z,76.39
2019-01-15T23:26:00.958Z,76.06
2019-01-15T23:29:00.131Z,76.52
2019-01-15T23:31:52.294Z,75.92
2019-01-15T23:34:49.032Z,75.88
2019-01-15T23:37:44.289Z,76.65
2019-01-15T23:40:41.319Z,77.03
2019-01-15T23:43:25.842Z,76.54
2019-01-15T23:46:08.142Z,76.34
2019-01-15T23:49:15.806Z,76.23
2019-01-15T23:52:08.160Z,76.81
2019-01-15T23:55:09.427Z,76.11
2019-01-15T23:57:48.685Z,76.82
